createdAt,value
2018-08-03T00:01:25.488Z,8.13
2018-08-03T00:03:54.043Z,7.53
2018-08-03T00:06:22.500Z,6.90
2018-08-03T00:08:51.365Z,7.50
2018-08-03T00:11:19.846Z,7.67
2018-08-03T00:13:49.107Z,8.13
2018-08-03T00:16:17.650Z,8.23
2018-08-03T00:18:46.257Z,7.50
2018-08-03T00:21:15.167Z,7.77
2018-08-03T00:23:44.263Z,8.07
2018-08-03T00:26:14.364Z,9.33
2018-08-03T00:28:43.273Z,7.07
2018-08-03T00:31:11.875Z,7.10
2018-08-03T00:33:41.188Z,7.67
2018-08-03T00:36:10.543Z,7.50
2018-08-03T00:38:39.453Z,8.90
2018-08-03T00:41:08.491Z,8.23
2018-08-03T00:43:37.081Z,7.73
2018-08-03T00:46:05.764Z,6.90
2018-08-03T00:48:34.656Z,6.63
2018-08-03T00:51:03.683Z,6.93
2018-08-03T00:53:32.452Z,6.85
2018-08-03T00:56:01.156Z,6.23
2018-08-03T00:58:29.952Z,9.37
2018-08-03T01:00:58.714Z,8.53
2018-08-03T01:03:27.403Z,7.37
2018-08-03T01:05:56.041Z,6.93
2018-08-03T01:08:24.997Z,6.80
2018-08-03T01:10:54.910Z,7.80
2018-08-03T01:13:24.996Z,6.63
2018-08-03T01:15:54.435Z,7.10
2018-08-03T01:18:23.125Z,7.70
2018-08-03T01:20:52.259Z,7.30
2018-08-03T01:23:21.890Z,7.03
2018-08-03T01:25:50.632Z,8.10
2018-08-03T01:28:19.913Z,7.53
2018-08-03T01:30:48.711Z,7.73
2018-08-03T01:33:17.792Z,7.07
2018-08-03T01:35:46.507Z,7.35
2018-08-03T01:38:15.401Z,7.73
2018-08-03T01:40:44.643Z,7.73
2018-08-03T01:43:13.713Z,6.63
2018-08-03T01:45:42.557Z,8.20
2018-08-03T01:48:11.552Z,8.17
2018-08-03T01:50:40.415Z,8.13
2018-08-03T01:53:09.344Z,8.50
2018-08-03T01:55:38.087Z,7.60
2018-08-03T01:58:07.143Z,7.78
2018-08-03T02:00:36.056Z,7.37
2018-08-03T02:03:04.822Z,7.12
2018-08-03T02:05:33.582Z,7.70
2018-08-03T02:08:02.851Z,7.13
2018-08-03T02:10:31.620Z,7.53
2018-08-03T02:13:00.348Z,7.58
2018-08-03T02:15:29.031Z,8.05
2018-08-03T02:17:57.868Z,6.67
2018-08-03T02:20:26.559Z,7.00
2018-08-03T02:22:55.502Z,6.40
2018-08-03T02:25:24.411Z,6.57
2018-08-03T02:27:54.259Z,6.60
2018-08-03T02:30:23.150Z,8.98
2018-08-03T02:32:51.817Z,9.65
2018-08-03T02:35:20.363Z,7.70
2018-08-03T02:37:49.924Z,9.20
2018-08-03T02:40:19.731Z,9.13
2018-08-03T02:42:48.485Z,10.75
2018-08-03T02:45:17.552Z,9.70
2018-08-03T02:47:47.580Z,9.47
2018-08-03T02:50:16.209Z,8.70
2018-08-03T02:52:45.020Z,8.33
2018-08-03T02:55:13.974Z,9.38
2018-08-03T02:57:42.906Z,8.40
2018-08-03T03:00:12.088Z,8.97
2018-08-03T03:02:43.672Z,7.17
2018-08-03T03:05:12.376Z,8.07
2018-08-03T03:07:42.931Z,6.40
2018-08-03T03:10:11.355Z,8.30
2018-08-03T03:12:39.863Z,8.00
2018-08-03T03:15:09.083Z,5.80
2018-08-03T03:17:37.739Z,9.83
2018-08-03T03:20:07.768Z,7.17
2018-08-03T03:22:36.433Z,6.90
2018-08-03T03:25:12.182Z,9.57
2018-08-03T03:27:43.870Z,7.73
2018-08-03T03:30:12.835Z,8.33
2018-08-03T03:32:42.109Z,8.80
2018-08-03T03:35:10.734Z,7.83
2018-08-03T03:37:39.245Z,7.87
2018-08-03T03:40:07.759Z,9.23
2018-08-03T03:42:36.508Z,7.07
2018-08-03T03:45:05.348Z,7.90
2018-08-03T03:47:34.651Z,7.00
2018-08-03T03:50:07.021Z,9.83
2018-08-03T03:52:36.348Z,7.13
2018-08-03T03:55:12.336Z,9.77
2018-08-03T03:57:45.086Z,7.67
2018-08-03T04:00:16.386Z,7.40
2018-08-03T04:02:45.118Z,9.70
2018-08-03T04:05:15.253Z,7.90
2018-08-03T04:07:43.973Z,7.90
2018-08-03T04:10:14.726Z,7.67
2018-08-03T04:12:43.653Z,7.63
2018-08-03T04:15:12.458Z,8.00
2018-08-03T04:17:45.121Z,10.90
2018-08-03T04:20:16.516Z,7.73
2018-08-03T04:22:45.129Z,6.97
2018-08-03T04:25:14.561Z,7.63
2018-08-03T04:27:43.092Z,7.60
2018-08-03T04:30:11.811Z,7.10
2018-08-03T04:32:40.619Z,9.70
2018-08-03T04:35:09.184Z,7.63
2018-08-03T04:37:38.337Z,7.83
2018-08-03T04:40:06.979Z,8.20
2018-08-03T04:42:36.274Z,6.83
2018-08-03T04:45:05.276Z,7.27
2018-08-03T04:47:33.825Z,6.97
2018-08-03T04:50:03.573Z,7.17
2018-08-03T04:52:32.135Z,6.63
2018-08-03T04:55:00.668Z,9.77
2018-08-03T04:57:29.256Z,7.63
2018-08-03T04:59:57.829Z,6.30
2018-08-03T05:02:26.733Z,7.33
2018-08-03T05:04:55.319Z,7.03
2018-08-03T05:07:23.879Z,6.87
2018-08-03T05:09:52.659Z,6.40
2018-08-03T05:12:22.508Z,7.50
2018-08-03T05:14:52.376Z,8.00
2018-08-03T05:17:21.058Z,7.93
2018-08-03T05:19:53.788Z,9.53
2018-08-03T05:22:23.039Z,6.73
2018-08-03T05:24:51.869Z,7.00
2018-08-03T05:27:20.392Z,6.70
2018-08-03T05:29:50.228Z,6.70
2018-08-03T05:32:19.211Z,6.87
2018-08-03T05:34:47.793Z,7.00
2018-08-03T05:37:16.351Z,6.73
2018-08-03T05:39:45.381Z,7.73
2018-08-03T05:42:15.486Z,7.93
2018-08-03T05:44:44.290Z,7.27
2018-08-03T05:47:14.615Z,6.95
2018-08-03T05:49:44.270Z,7.37
2018-08-03T05:52:15.687Z,7.17
2018-08-03T05:54:44.364Z,8.27
2018-08-03T05:57:15.377Z,7.27
2018-08-03T05:59:45.181Z,7.80
2018-08-03T06:02:15.132Z,7.80
2018-08-03T06:04:44.728Z,9.27
2018-08-03T06:07:13.219Z,7.23
2018-08-03T06:09:41.784Z,8.50
2018-08-03T06:12:11.335Z,11.37
2018-08-03T06:14:40.835Z,7.03
2018-08-03T06:17:10.601Z,14.43
2018-08-03T06:19:40.320Z,22.57
2018-08-03T06:22:09.131Z,11.90
2018-08-03T06:24:37.862Z,8.17
2018-08-03T06:27:07.536Z,7.30
2018-08-03T06:29:38.236Z,8.77
2018-08-03T06:32:10.427Z,7.03
2018-08-03T06:34:40.426Z,7.50
2018-08-03T06:37:09.203Z,7.17
2018-08-03T06:39:39.212Z,7.07
2018-08-03T06:42:11.448Z,7.20
2018-08-03T06:44:41.042Z,9.20
2018-08-03T06:47:10.843Z,8.90
2018-08-03T06:49:42.647Z,7.87
2018-08-03T06:52:13.586Z,7.33
2018-08-03T06:54:44.637Z,7.47
2018-08-03T06:57:13.619Z,6.90
2018-08-03T06:59:43.136Z,6.77
2018-08-03T07:02:13.979Z,6.53
2018-08-03T07:04:44.391Z,7.30
2018-08-03T07:07:14.409Z,7.37
2018-08-03T07:09:45.253Z,5.53
2018-08-03T07:12:15.927Z,6.37
2018-08-03T07:14:46.228Z,8.93
2018-08-03T07:17:15.097Z,7.03
2018-08-03T07:19:45.009Z,6.43
2018-08-03T07:22:14.189Z,6.23
2018-08-03T07:24:43.604Z,6.27
2018-08-03T07:27:12.935Z,7.43
2018-08-03T07:29:41.828Z,5.90
2018-08-03T07:32:13.030Z,6.73
2018-08-03T07:34:41.798Z,7.37
2018-08-03T07:37:11.357Z,6.10
2018-08-03T07:39:39.936Z,6.10
2018-08-03T07:42:09.404Z,5.80
2018-08-03T07:44:40.600Z,6.33
2018-08-03T07:47:11.076Z,5.60
2018-08-03T07:49:40.911Z,6.30
2018-08-03T07:52:11.587Z,6.65
2018-08-03T07:58:09.494Z,8.13
2018-08-03T08:01:36.104Z,6.67
2018-08-03T08:04:05.037Z,6.30
2018-08-03T08:06:33.701Z,6.87
2018-08-03T08:09:04.778Z,7.75
2018-08-03T08:11:33.558Z,6.42
2018-08-03T08:14:02.278Z,5.58
2018-08-03T08:16:32.316Z,7.87
2018-08-03T08:19:02.620Z,7.47
2018-08-03T08:21:31.976Z,7.35
2018-08-03T08:24:01.223Z,6.62
2018-08-03T08:26:29.929Z,6.58
2018-08-03T08:28:58.856Z,6.87
2018-08-03T08:31:27.524Z,7.20
2018-08-03T08:33:56.730Z,7.50
2018-08-03T08:36:25.506Z,9.40
2018-08-03T08:38:54.441Z,7.00
2018-08-03T08:41:24.118Z,7.22
2018-08-03T08:43:54.212Z,7.58
2018-08-03T08:46:23.966Z,7.78
2018-08-03T08:48:55.674Z,7.30
2018-08-03T08:51:27.721Z,8.55
2018-08-03T08:53:56.479Z,9.88
2018-08-03T08:56:25.264Z,7.58
2018-08-03T08:58:54.092Z,6.80
2018-08-03T09:01:22.700Z,6.50
2018-08-03T09:03:51.141Z,8.08
2018-08-03T09:06:19.872Z,8.00
2018-08-03T09:08:49.405Z,7.95
2018-08-03T09:11:19.217Z,7.55
2018-08-03T09:13:50.242Z,8.55
2018-08-03T09:16:19.491Z,7.40
2018-08-03T09:18:48.677Z,8.05
2018-08-03T09:21:17.791Z,7.75
2018-08-03T09:23:49.061Z,8.20
2018-08-03T09:26:18.908Z,7.30
2018-08-03T09:28:47.451Z,7.60
2018-08-03T09:31:16.184Z,8.05
2018-08-03T09:33:44.753Z,8.53
2018-08-03T09:36:13.313Z,10.60
2018-08-03T09:38:42.364Z,7.95
2018-08-03T09:41:17.715Z,6.92
2018-08-03T09:43:47.103Z,7.67
2018-08-03T09:46:15.653Z,7.72
2018-08-03T09:48:44.386Z,8.10
2018-08-03T09:51:13.111Z,7.50
2018-08-03T09:53:42.959Z,7.47
2018-08-03T09:56:12.189Z,7.85
2018-08-03T09:58:41.813Z,7.55
2018-08-03T10:01:10.524Z,7.65
2018-08-03T10:03:41.531Z,7.83
2018-08-03T10:06:10.404Z,7.45
2018-08-03T10:08:39.526Z,7.10
2018-08-03T10:11:09.562Z,7.83
2018-08-03T10:13:38.319Z,7.17
2018-08-03T10:16:06.917Z,7.25
2018-08-03T10:18:35.791Z,7.80
2018-08-03T10:21:05.089Z,8.38
2018-08-03T10:23:35.373Z,8.03
2018-08-03T10:26:04.759Z,8.25
2018-08-03T10:28:34.091Z,8.10
2018-08-03T10:31:02.625Z,8.05
2018-08-03T10:33:31.385Z,7.20
2018-08-03T10:36:01.695Z,8.08
2018-08-03T10:38:31.237Z,8.35
2018-08-03T10:40:59.869Z,8.73
2018-08-03T10:43:28.493Z,7.17
2018-08-03T10:45:57.008Z,7.25
2018-08-03T10:48:25.761Z,7.67
2018-08-03T10:50:54.384Z,7.65
2018-08-03T10:53:23.158Z,7.15
2018-08-03T10:55:52.538Z,6.70
2018-08-03T10:58:21.912Z,7.20
2018-08-03T11:00:50.995Z,7.33
2018-08-03T11:03:19.880Z,7.55
2018-08-03T11:05:49.017Z,7.90
2018-08-03T11:08:18.572Z,7.67
2018-08-03T11:10:48.947Z,6.85
2018-08-03T11:13:18.088Z,6.87
2018-08-03T11:15:47.690Z,6.15
2018-08-03T11:18:16.894Z,7.42
2018-08-03T11:20:45.721Z,7.12
2018-08-03T11:23:14.504Z,6.45
2018-08-03T11:25:43.243Z,6.47
2018-08-03T11:28:12.484Z,6.30
2018-08-03T11:30:42.317Z,6.20
2018-08-03T11:33:11.450Z,7.50
2018-08-03T11:35:40.791Z,5.28
2018-08-03T11:38:09.828Z,5.87
2018-08-03T11:40:39.074Z,6.53
2018-08-03T11:43:08.088Z,7.08
2018-08-03T11:45:37.398Z,7.20
2018-08-03T11:48:07.113Z,6.33
2018-08-03T11:50:37.023Z,7.03
2018-08-03T11:53:06.195Z,7.25
2018-08-03T11:55:37.664Z,6.35
2018-08-03T11:58:06.696Z,5.60
2018-08-03T12:00:36.030Z,6.47
2018-08-03T12:03:05.713Z,7.15
2018-08-03T12:05:38.424Z,7.15
2018-08-03T12:08:08.356Z,4.80
2018-08-03T12:10:37.285Z,5.30
2018-08-03T12:13:06.546Z,5.72
2018-08-03T12:15:35.957Z,5.83
2018-08-03T12:18:05.245Z,6.85
2018-08-03T12:20:34.896Z,7.83
2018-08-03T12:23:04.047Z,6.08
2018-08-03T12:25:33.702Z,6.17
2018-08-03T12:28:03.757Z,6.30
2018-08-03T12:30:32.427Z,6.47
2018-08-03T12:33:01.399Z,6.55
2018-08-03T12:35:30.361Z,5.62
2018-08-03T12:37:59.620Z,8.03
2018-08-03T12:40:28.678Z,5.55
2018-08-03T12:42:57.321Z,6.30
2018-08-03T12:45:33.837Z,5.67
2018-08-03T12:47:55.145Z,5.58
2018-08-03T12:50:23.873Z,5.35
2018-08-03T12:52:52.408Z,6.10
2018-08-03T12:55:21.071Z,5.90
2018-08-03T12:57:50.529Z,5.90
2018-08-03T13:00:19.735Z,5.60
2018-08-03T13:02:48.419Z,5.42
2018-08-03T13:05:16.968Z,5.03
2018-08-03T13:07:47.525Z,5.00
2018-08-03T13:10:17.223Z,4.87
2018-08-03T13:12:46.377Z,5.25
2018-08-03T13:15:14.956Z,5.60
2018-08-03T13:17:44.474Z,5.05
2018-08-03T13:20:13.709Z,5.50
2018-08-03T13:22:42.378Z,5.22
2018-08-03T13:25:11.342Z,5.25
2018-08-03T13:27:40.768Z,5.37
2018-08-03T13:30:09.312Z,5.12
2018-08-03T13:32:39.068Z,5.67
2018-08-03T13:35:08.655Z,5.28
2018-08-03T13:37:37.364Z,5.60
2018-08-03T13:40:06.141Z,6.17
2018-08-03T13:42:34.714Z,6.47
2018-08-03T13:45:03.332Z,5.20
2018-08-03T13:47:32.743Z,4.60
2018-08-03T13:50:02.331Z,5.28
2018-08-03T13:52:31.132Z,5.58
2018-08-03T13:54:59.794Z,5.00
2018-08-03T13:57:28.957Z,4.62
2018-08-03T13:59:59.384Z,5.20
2018-08-03T14:02:29.067Z,5.30
2018-08-03T14:04:58.191Z,5.58
2018-08-03T14:07:27.810Z,5.87
2018-08-03T14:09:57.439Z,6.08
2018-08-03T14:12:26.555Z,5.22
2018-08-03T14:14:55.298Z,6.33
2018-08-03T14:17:23.861Z,5.58
2018-08-03T14:19:53.984Z,5.37
2018-08-03T14:22:22.674Z,4.85
2018-08-03T14:24:51.755Z,5.75
2018-08-03T14:27:20.682Z,5.37
2018-08-03T14:29:50.924Z,5.12
2018-08-03T14:32:20.638Z,4.90
2018-08-03T14:34:51.087Z,5.05
2018-08-03T14:37:19.735Z,5.15
2018-08-03T14:39:49.242Z,5.03
2018-08-03T14:42:17.947Z,4.30
2018-08-03T14:44:47.497Z,4.87
2018-08-03T14:47:16.144Z,5.10
2018-08-03T14:49:45.355Z,5.87
2018-08-03T14:52:13.900Z,5.20
2018-08-03T14:54:42.721Z,4.80
2018-08-03T14:57:11.470Z,5.35
2018-08-03T14:59:41.177Z,5.45
2018-08-03T15:02:10.433Z,7.25
2018-08-03T15:04:39.569Z,5.08
2018-08-03T15:07:08.505Z,5.22
2018-08-03T15:09:37.407Z,4.25
2018-08-03T15:12:06.619Z,5.28
2018-08-03T15:14:35.805Z,6.47
2018-08-03T15:17:05.196Z,4.90
2018-08-03T15:19:34.584Z,5.55
2018-08-03T15:22:03.590Z,5.65
2018-08-03T15:24:33.084Z,5.17
2018-08-03T15:27:02.952Z,4.50
2018-08-03T15:29:32.262Z,7.78
2018-08-03T15:32:04.923Z,6.97
2018-08-03T15:34:34.177Z,5.45
2018-08-03T15:37:03.390Z,5.30
2018-08-03T15:39:32.620Z,5.05
2018-08-03T15:42:01.714Z,5.42
2018-08-03T15:44:30.924Z,4.72
2018-08-03T15:47:00.749Z,5.03
2018-08-03T15:49:30.123Z,4.40
2018-08-03T15:51:59.405Z,4.60
2018-08-03T15:54:29.024Z,4.30
2018-08-03T15:56:57.716Z,5.05
2018-08-03T15:59:26.982Z,5.80
2018-08-03T16:01:58.674Z,5.53
2018-08-03T16:04:27.298Z,4.83
2018-08-03T16:06:56.455Z,5.15
2018-08-03T16:09:25.748Z,5.00
2018-08-03T16:11:55.052Z,5.15
2018-08-03T16:14:24.037Z,4.90
2018-08-03T16:16:53.309Z,5.80
2018-08-03T16:19:22.212Z,4.72
2018-08-03T16:21:51.531Z,4.67
2018-08-03T16:24:20.666Z,4.87
2018-08-03T16:26:49.831Z,5.50
2018-08-03T16:29:18.922Z,4.47
2018-08-03T16:31:48.174Z,4.78
2018-08-03T16:34:16.821Z,5.65
2018-08-03T16:36:45.844Z,4.67
2018-08-03T16:39:14.675Z,5.60
2018-08-03T16:41:43.690Z,4.65
2018-08-03T16:44:12.401Z,4.95
2018-08-03T16:46:41.161Z,5.28
2018-08-03T16:49:09.898Z,7.78
2018-08-03T16:51:38.520Z,4.08
2018-08-03T16:54:07.123Z,5.58
2018-08-03T16:56:36.504Z,5.78
2018-08-03T16:59:05.012Z,5.40
2018-08-03T17:01:35.665Z,4.53
2018-08-03T17:04:05.189Z,4.40
2018-08-03T17:06:34.127Z,5.67
2018-08-03T17:09:02.789Z,4.65
2018-08-03T17:11:31.464Z,4.33
2018-08-03T17:14:00.816Z,4.20
2018-08-03T17:16:30.555Z,4.10
2018-08-03T17:18:59.283Z,5.10
2018-08-03T17:21:28.640Z,4.60
2018-08-03T17:23:58.364Z,4.83
2018-08-03T17:26:28.666Z,5.12
2018-08-03T17:28:57.257Z,5.45
2018-08-03T17:31:27.437Z,5.42
2018-08-03T17:33:56.249Z,4.95
2018-08-03T17:36:25.085Z,4.30
2018-08-03T17:38:53.878Z,4.80
2018-08-03T17:41:23.188Z,5.53
2018-08-03T17:43:52.712Z,5.15
2018-08-03T17:46:21.937Z,8.90
2018-08-03T17:48:50.836Z,8.75
2018-08-03T17:51:20.136Z,7.92
2018-08-03T17:53:49.198Z,6.35
2018-08-03T17:56:17.912Z,8.80
2018-08-03T17:58:46.759Z,5.58
2018-08-03T18:01:16.066Z,7.45
2018-08-03T18:03:44.697Z,7.03
2018-08-03T18:06:13.834Z,11.83
2018-08-03T18:08:43.015Z,8.48
2018-08-03T18:11:11.543Z,6.90
2018-08-03T18:13:40.323Z,7.73
2018-08-03T18:16:09.616Z,7.20
2018-08-03T18:18:38.063Z,5.70
2018-08-03T18:21:07.298Z,6.40
2018-08-03T18:23:35.931Z,5.83
2018-08-03T18:26:04.991Z,5.13
2018-08-03T18:28:34.246Z,7.33
2018-08-03T18:31:03.158Z,4.97
2018-08-03T18:33:32.957Z,4.60
2018-08-03T18:36:02.105Z,5.67
2018-08-03T18:38:31.214Z,5.57
2018-08-03T18:41:00.253Z,10.57
2018-08-03T18:43:29.367Z,10.70
2018-08-03T18:45:58.057Z,18.00
2018-08-03T18:48:27.198Z,18.80
2018-08-03T18:50:56.032Z,7.03
2018-08-03T18:53:25.216Z,10.80
2018-08-03T18:55:54.384Z,9.03
2018-08-03T18:58:23.750Z,7.17
2018-08-03T19:00:52.855Z,5.43
2018-08-03T19:03:21.906Z,5.77
2018-08-03T19:05:51.277Z,8.77
2018-08-03T19:08:20.461Z,6.30
2018-08-03T19:10:49.721Z,7.07
2018-08-03T19:13:18.533Z,5.23
2018-08-03T19:15:47.395Z,6.15
2018-08-03T19:18:16.099Z,6.97
2018-08-03T19:20:44.863Z,5.07
2018-08-03T19:23:13.653Z,4.60
2018-08-03T19:25:43.862Z,7.73
2018-08-03T19:28:12.633Z,5.53
2018-08-03T19:30:42.280Z,5.43
2018-08-03T19:33:11.795Z,4.80
2018-08-03T19:35:41.012Z,7.30
2018-08-03T19:38:11.842Z,7.77
2018-08-03T19:40:43.404Z,7.13
2018-08-03T19:43:13.336Z,11.33
2018-08-03T19:45:42.424Z,6.27
2018-08-03T19:48:10.995Z,6.80
2018-08-03T19:50:39.607Z,5.60
2018-08-03T19:53:08.839Z,6.83
2018-08-03T19:55:37.861Z,7.20
2018-08-03T19:58:06.889Z,5.77
2018-08-03T20:00:36.037Z,6.37
2018-08-03T20:03:06.477Z,6.30
2018-08-03T20:05:35.887Z,6.70
2018-08-03T20:08:04.681Z,5.90
2018-08-03T20:10:33.430Z,7.37
2018-08-03T20:13:02.125Z,6.20
2018-08-03T20:15:30.812Z,9.17
2018-08-03T20:17:59.478Z,6.10
2018-08-03T20:20:28.677Z,7.27
2018-08-03T20:22:57.345Z,6.30
2018-08-03T20:25:27.617Z,6.77
2018-08-03T20:27:56.708Z,6.00
2018-08-03T20:30:25.745Z,5.97
2018-08-03T20:32:55.206Z,6.33
2018-08-03T20:35:23.900Z,7.93
2018-08-03T20:37:52.674Z,8.33
2018-08-03T20:40:21.337Z,5.93
2018-08-03T20:42:52.415Z,8.17
2018-08-03T20:45:21.644Z,6.70
2018-08-03T20:47:50.135Z,6.23
2018-08-03T20:50:19.059Z,6.90
2018-08-03T20:52:48.385Z,6.37
2018-08-03T20:55:17.595Z,6.63
2018-08-03T20:57:47.702Z,6.53
2018-08-03T21:00:16.352Z,7.20
2018-08-03T21:02:45.774Z,7.63
2018-08-03T21:05:14.588Z,7.33
2018-08-03T21:07:43.259Z,7.63
2018-08-03T21:10:12.784Z,6.93
2018-08-03T21:12:41.247Z,7.53
2018-08-03T21:15:10.526Z,6.70
2018-08-03T21:17:39.349Z,6.53
2018-08-03T21:20:08.692Z,6.83
2018-08-03T21:22:37.340Z,6.90
2018-08-03T21:25:06.793Z,7.20
2018-08-03T21:27:36.781Z,6.90
2018-08-03T21:30:07.866Z,7.00
2018-08-03T21:32:38.346Z,8.60
2018-08-03T21:35:08.979Z,7.27
2018-08-03T21:37:38.412Z,7.17
2018-08-03T21:40:07.659Z,6.90
2018-08-03T21:42:37.390Z,9.40
2018-08-03T21:45:06.453Z,7.90
2018-08-03T21:47:36.317Z,7.87
2018-08-03T21:50:06.335Z,8.07
2018-08-03T21:52:35.173Z,7.40
2018-08-03T21:55:04.512Z,7.63
2018-08-03T21:57:34.104Z,9.67
2018-08-03T22:00:03.227Z,9.33
2018-08-03T22:02:33.216Z,6.87
2018-08-03T22:05:02.583Z,8.57
2018-08-03T22:07:31.447Z,7.00
2018-08-03T22:10:00.285Z,7.30
2018-08-03T22:12:29.774Z,7.90
2018-08-03T22:14:58.795Z,9.57
2018-08-03T22:17:28.253Z,7.63
2018-08-03T22:20:02.329Z,7.47
2018-08-03T22:22:34.977Z,8.20
2018-08-03T22:25:05.413Z,7.43
2018-08-03T22:27:34.331Z,8.23
2018-08-03T22:30:04.703Z,6.67
2018-08-03T22:32:33.721Z,7.70
2018-08-03T22:35:02.904Z,6.90
2018-08-03T22:37:32.119Z,8.50
2018-08-03T22:40:02.054Z,7.47
2018-08-03T22:42:31.373Z,7.00
2018-08-03T22:45:01.178Z,7.20
2018-08-03T22:47:30.691Z,8.37
2018-08-03T22:49:59.551Z,10.17
2018-08-03T22:52:28.200Z,8.93
2018-08-03T22:54:57.096Z,10.10
2018-08-03T22:57:26.092Z,8.50
2018-08-03T22:59:55.681Z,8.88
2018-08-03T23:02:24.699Z,8.73
2018-08-03T23:04:53.396Z,8.23
2018-08-03T23:07:22.141Z,8.40
2018-08-03T23:09:50.875Z,7.63
2018-08-03T23:12:19.681Z,8.17
2018-08-03T23:14:48.456Z,8.13
2018-08-03T23:17:18.018Z,7.80
2018-08-03T23:19:47.091Z,10.03
2018-08-03T23:22:15.823Z,9.03
2018-08-03T23:24:44.501Z,8.57
2018-08-03T23:27:13.849Z,7.53
2018-08-03T23:29:43.309Z,7.87
2018-08-03T23:32:14.270Z,7.27
2018-08-03T23:34:43.428Z,7.17
2018-08-03T23:37:13.354Z,7.63
2018-08-03T23:39:42.275Z,6.90
2018-08-03T23:42:12.055Z,9.23
2018-08-03T23:44:41.435Z,7.53
2018-08-03T23:47:10.696Z,8.30
2018-08-03T23:49:40.184Z,7.10
2018-08-03T23:52:09.830Z,9.00
2018-08-03T23:54:39.171Z,8.57
2018-08-03T23:57:08.919Z,7.87
2018-08-03T23:59:38.345Z,7.57
